Time,TemperatureF,DewpointF,PressureIn,WindDirection,WindDirectionDegrees,WindSpeedMPH,WindSpeedGustMPH,Humidity,HourlyPrecipIn,Conditions,Clouds,dailyrainin,SoftwareType,DateUTC
2013-02-14 00:00:00,24.9,18.1,29.87,SW,225,0.0,0.0,75,0.00,,,0.00,WUHU216HW,2013-02-14 05:00:00,
2013-02-14 00:05:00,24.9,18.1,29.87,SW,225,0.0,0.0,75,0.00,,,0.00,WUHU216HW,2013-02-14 05:05:00,
2013-02-14 00:10:00,24.9,18.1,29.87,SW,225,0.0,0.0,75,0.00,,,0.00,WUHU216HW,2013-02-14 05:10:00,
2013-02-14 00:15:00,24.9,18.1,29.87,SW,225,0.0,0.0,75,0.00,,,0.00,WUHU216HW,2013-02-14 05:15:00,
2013-02-14 00:20:00,24.9,18.1,29.86,SW,225,0.0,0.0,75,0.00,,,0.00,WUHU216HW,2013-02-14 05:20:00,
2013-02-14 00:26:00,24.6,17.7,29.86,SW,225,0.0,0.0,75,0.00,,,0.00,WUHU216HW,2013-02-14 05:26:00,
2013-02-14 00:31:00,24.6,17.7,29.85,SW,225,0.0,0.0,75,0.00,,,0.00,WUHU216HW,2013-02-14 05:31:00,
2013-02-14 00:36:00,24.6,17.7,29.85,SW,225,0.0,0.0,75,0.00,,,0.00,WUHU216HW,2013-02-14 05:36:00,
2013-02-14 00:41:00,24.6,17.7,29.85,SW,225,0.0,0.0,75,0.00,,,0.00,WUHU216HW,2013-02-14 05:41:00,
2013-02-14 00:46:00,24.6,17.7,29.85,SW,225,0.0,0.0,75,0.00,,,0.00,WUHU216HW,2013-02-14 05:46:00,
2013-02-14 00:52:00,24.4,17.6,29.86,SW,225,0.0,0.0,75,0.00,,,0.00,WUHU216HW,2013-02-14 05:52:00,
2013-02-14 00:58:00,24.4,17.6,29.86,SW,225,0.0,0.0,75,0.00,,,0.00,WUHU216HW,2013-02-14 05:58:00,
2013-02-14 01:03:00,24.4,17.6,29.87,SW,225,0.0,0.0,75,0.00,,,0.00,WUHU216HW,2013-02-14 06:03:00,
2013-02-14 01:08:00,24.0,17.2,29.87,SW,225,0.0,0.0,75,0.00,,,0.00,WUHU216HW,2013-02-14 06:08:00,
2013-02-14 01:13:00,24.0,17.2,29.87,SW,225,0.0,0.0,75,0.00,,,0.00,WUHU216HW,2013-02-14 06:13:00,
2013-02-14 01:18:00,23.7,16.9,29.87,SW,225,0.0,0.0,75,0.00,,,0.00,WUHU216HW,2013-02-14 06:18:00,
2013-02-14 01:23:00,23.5,16.7,29.88,SW,225,0.0,0.0,75,0.00,,,0.00,WUHU216HW,2013-02-14 06:23:00,
2013-02-14 01:28:00,23.5,16.7,29.88,SW,225,0.0,0.0,75,0.00,,,0.00,WUHU216HW,2013-02-14 06:28:00,
2013-02-14 01:33:00,23.1,16.4,29.89,SW,225,0.0,0.0,75,0.00,,,0.00,WUHU216HW,2013-02-14 06:33:00,
2013-02-14 01:38:00,23.1,16.4,29.89,SW,225,0.0,0.0,75,0.00,,,0.00,WUHU216HW,2013-02-14 06:38:00,
2013-02-14 01:43:00,23.0,16.2,29.89,SW,225,0.0,0.0,75,0.00,,,0.00,WUHU216HW,2013-02-14 06:43:00,
2013-02-14 01:48:00,22.8,16.3,29.89,SW,225,0.0,0.0,76,0.00,,,0.00,WUHU216HW,2013-02-14 06:48:00,
2013-02-14 01:53:00,22.8,16.3,29.89,SW,225,0.0,0.0,76,0.00,,,0.00,WUHU216HW,2013-02-14 06:53:00,
2013-02-14 01:58:00,22.8,16.3,29.89,SW,225,0.0,0.0,76,0.00,,,0.00,WUHU216HW,2013-02-14 06:58:00,
2013-02-14 02:03:00,22.8,16.3,29.89,SW,225,0.0,0.0,76,0.00,,,0.00,WUHU216HW,2013-02-14 07:03:00,
2013-02-14 02:08:00,22.8,16.3,29.89,SW,225,0.0,0.0,76,0.00,,,0.00,WUHU216HW,2013-02-14 07:08:00,
2013-02-14 02:13:00,23.0,16.8,29.89,SW,225,0.0,0.0,77,0.00,,,0.00,WUHU216HW,2013-02-14 07:13:00,
2013-02-14 02:18:00,23.1,16.7,29.89,SW,225,0.0,0.0,76,0.00,,,0.00,WUHU216HW,2013-02-14 07:18:00,
2013-02-14 02:23:00,22.8,16.6,29.89,SW,225,0.0,0.0,77,0.00,,,0.00,WUHU216HW,2013-02-14 07:23:00,
2013-02-14 02:28:00,22.8,16.6,29.88,SW,225,0.0,0.0,77,0.00,,,0.00,WUHU216HW,2013-02-14 07:28:00,
2013-02-14 02:33:00,22.6,16.5,29.88,SW,225,0.0,0.0,77,0.00,,,0.00,WUHU216HW,2013-02-14 07:33:00,
2013-02-14 02:39:00,22.4,16.3,29.89,SW,225,0.0,0.0,77,0.00,,,0.00,WUHU216HW,2013-02-14 07:39:00,
2013-02-14 02:44:00,22.1,15.9,29.89,SW,225,0.0,0.0,77,0.00,,,0.00,WUHU216HW,2013-02-14 07:44:00,
2013-02-14 02:49:00,21.9,15.7,29.89,SW,225,0.0,0.0,77,0.00,,,0.00,WUHU216HW,2013-02-14 07:49:00,
2013-02-14 02:54:00,21.9,15.7,29.89,SW,225,0.0,0.0,77,0.00,,,0.00,WUHU216HW,2013-02-14 07:54:00,
2013-02-14 02:59:00,21.7,15.6,29.89,SW,225,0.0,0.0,77,0.00,,,0.00,WUHU216HW,2013-02-14 07:59:00,
2013-02-14 03:04:00,21.3,15.2,29.89,SW,225,0.0,0.0,77,0.00,,,0.00,WUHU216HW,2013-02-14 08:04:00,
2013-02-14 03:09:00,21.3,15.2,29.90,SW,225,0.0,0.0,77,0.00,,,0.00,WUHU216HW,2013-02-14 08:09:00,
2013-02-14 03:14:00,21.2,15.0,29.90,SW,225,0.0,0.0,77,0.00,,,0.00,WUHU216HW,2013-02-14 08:14:00,
2013-02-14 03:19:00,21.0,14.8,29.90,SW,225,0.0,0.0,77,0.00,,,0.00,WUHU216HW,2013-02-14 08:19:00,
2013-02-14 03:24:00,21.0,14.8,29.90,SW,225,0.0,0.0,77,0.00,,,0.00,WUHU216HW,2013-02-14 08:24:00,
2013-02-14 03:29:00,21.0,14.8,29.90,SW,225,0.0,0.0,77,0.00,,,0.00,WUHU216HW,2013-02-14 08:29:00,
2013-02-14 03:35:00,20.8,14.7,29.90,SW,225,0.0,0.0,77,0.00,,,0.00,WUHU216HW,2013-02-14 08:35:00,
2013-02-14 03:40:00,20.8,14.7,29.90,SW,225,0.0,0.0,77,0.00,,,0.00,WUHU216HW,2013-02-14 08:40:00,
2013-02-14 03:45:00,20.8,14.7,29.90,SW,225,0.0,0.0,77,0.00,,,0.00,WUHU216HW,2013-02-14 08:45:00,
2013-02-14 03:50:00,20.8,14.7,29.90,SW,225,0.0,0.0,77,0.00,,,0.00,WUHU216HW,2013-02-14 08:50:00,
2013-02-14 03:55:00,20.8,14.7,29.90,SW,225,0.0,0.0,77,0.00,,,0.00,WUHU216HW,2013-02-14 08:55:00,
2013-02-14 04:00:00,20.8,14.7,29.90,SW,225,0.0,0.0,77,0.00,,,0.00,WUHU216HW,2013-02-14 09:00:00,
2013-02-14 04:05:00,20.4,14.3,29.90,SW,225,0.0,0.0,77,0.00,,,0.00,WUHU216HW,2013-02-14 09:05:00,
2013-02-14 04:10:00,20.4,14.3,29.90,SW,225,0.0,0.0,77,0.00,,,0.00,WUHU216HW,2013-02-14 09:10:00,
2013-02-14 04:15:00,20.4,14.3,29.91,SW,225,0.0,0.0,77,0.00,,,0.00,WUHU216HW,2013-02-14 09:15:00,
2013-02-14 04:20:00,20.4,14.3,29.91,SW,225,0.0,0.0,77,0.00,,,0.00,WUHU216HW,2013-02-14 09:20:00,
2013-02-14 04:25:00,20.4,14.3,29.91,North,0,0.0,0.0,77,0.00,,,0.00,WUHU216HW,2013-02-14 09:25:00,
2013-02-14 04:30:00,20.4,14.6,29.91,SW,225,0.0,0.0,78,0.00,,,0.00,WUHU216HW,2013-02-14 09:30:00,
2013-02-14 04:37:00,20.4,14.3,29.91,SW,225,0.0,0.0,77,0.00,,,0.00,WUHU216HW,2013-02-14 09:37:00,
2013-02-14 04:42:00,20.4,14.3,29.91,SW,225,0.0,0.0,77,0.00,,,0.00,WUHU216HW,2013-02-14 09:42:00,
2013-02-14 04:47:00,20.4,14.3,29.91,SW,225,0.0,0.0,77,0.00,,,0.00,WUHU216HW,2013-02-14 09:47:00,
2013-02-14 04:54:00,20.1,13.9,29.91,SW,225,0.0,0.0,77,0.00,,,0.00,WUHU216HW,2013-02-14 09:54:00,
2013-02-14 04:59:00,19.9,13.8,29.91,SW,225,0.0,0.0,77,0.00,,,0.00,WUHU216HW,2013-02-14 09:59:00,
2013-02-14 05:04:00,19.9,13.8,29.91,SW,225,0.0,0.0,77,0.00,,,0.00,WUHU216HW,2013-02-14 10:04:00,
2013-02-14 05:09:00,19.9,13.8,29.91,SW,225,0.0,0.0,77,0.00,,,0.00,WUHU216HW,2013-02-14 10:09:00,
2013-02-14 05:14:00,19.5,13.4,29.91,SW,225,0.0,0.0,77,0.00,,,0.00,WUHU216HW,2013-02-14 10:14:00,
2013-02-14 05:19:00,19.7,13.9,29.92,SW,225,0.0,0.0,78,0.00,,,0.00,WUHU216HW,2013-02-14 10:19:00,
2013-02-14 05:25:00,19.9,14.1,29.92,SW,225,0.0,0.0,78,0.00,,,0.00,WUHU216HW,2013-02-14 10:25:00,
2013-02-14 05:30:00,19.9,14.1,29.92,SW,225,0.0,0.0,78,0.00,,,0.00,WUHU216HW,2013-02-14 10:30:00,
2013-02-14 05:35:00,19.9,14.1,29.93,SW,225,0.0,0.0,78,0.00,,,0.00,WUHU216HW,2013-02-14 10:35:00,
2013-02-14 05:40:00,19.9,14.1,29.93,SW,225,0.0,0.0,78,0.00,,,0.00,WUHU216HW,2013-02-14 10:40:00,
2013-02-14 05:45:00,19.9,14.1,29.93,SW,225,0.0,0.0,78,0.00,,,0.00,WUHU216HW,2013-02-14 10:45:00,
2013-02-14 05:50:00,19.9,14.1,29.93,SW,225,0.0,0.0,78,0.00,,,0.00,WUHU216HW,2013-02-14 10:50:00,
2013-02-14 05:55:00,19.9,14.1,29.93,SW,225,0.0,0.0,78,0.00,,,0.00,WUHU216HW,2013-02-14 10:55:00,
2013-02-14 06:00:00,20.1,14.2,29.93,SW,225,0.0,0.0,78,0.00,,,0.00,WUHU216HW,2013-02-14 11:00:00,
2013-02-14 06:05:00,20.1,14.2,29.93,SW,225,0.0,0.0,78,0.00,,,0.00,WUHU216HW,2013-02-14 11:05:00,
2013-02-14 06:10:00,20.1,14.2,29.93,SW,225,0.0,0.0,78,0.00,,,0.00,WUHU216HW,2013-02-14 11:10:00,
2013-02-14 06:15:00,20.1,14.2,29.93,SW,225,0.0,0.0,78,0.00,,,0.00,WUHU216HW,2013-02-14 11:15:00,
2013-02-14 06:20:00,20.3,14.4,29.94,SW,225,0.0,0.0,78,0.00,,,0.00,WUHU216HW,2013-02-14 11:20:00,
2013-02-14 06:27:00,20.4,14.6,29.94,SW,225,0.0,0.0,78,0.00,,,0.00,WUHU216HW,2013-02-14 11:27:00,
2013-02-14 06:32:00,20.4,14.9,29.94,SW,225,0.0,0.0,79,0.00,,,0.00,WUHU216HW,2013-02-14 11:32:00,
2013-02-14 06:37:00,20.4,14.6,29.94,SW,225,0.0,0.0,78,0.00,,,0.00,WUHU216HW,2013-02-14 11:37:00,
2013-02-14 06:43:00,20.4,14.6,29.94,SW,225,0.0,0.0,78,0.00,,,0.00,WUHU216HW,2013-02-14 11:43:00,
2013-02-14 06:48:00,20.4,14.6,29.94,SW,225,0.0,0.0,78,0.00,,,0.00,WUHU216HW,2013-02-14 11:48:00,
2013-02-14 06:53:00,20.6,14.9,29.94,SW,225,0.0,0.0,79,0.00,,,0.00,WUHU216HW,2013-02-14 11:53:00,
2013-02-14 06:58:00,20.8,15.3,29.94,SW,225,0.0,0.0,79,0.00,,,0.00,WUHU216HW,2013-02-14 11:58:00,
2013-02-14 07:03:00,20.8,15.3,29.94,SW,225,0.0,0.0,79,0.00,,,0.00,WUHU216HW,2013-02-14 12:03:00,
2013-02-14 07:08:00,21.0,15.4,29.94,SW,225,0.0,0.0,79,0.00,,,0.00,WUHU216HW,2013-02-14 12:08:00,
2013-02-14 07:13:00,21.0,15.4,29.95,SW,225,0.0,0.0,79,0.00,,,0.00,WUHU216HW,2013-02-14 12:13:00,
2013-02-14 07:18:00,21.0,15.4,29.95,SW,225,0.0,0.0,79,0.00,,,0.00,WUHU216HW,2013-02-14 12:18:00,
2013-02-14 07:23:00,21.3,15.8,29.95,SW,225,0.0,0.0,79,0.00,,,0.00,WUHU216HW,2013-02-14 12:23:00,
2013-02-14 07:28:00,21.5,16.0,29.96,SW,225,0.0,0.0,79,0.00,,,0.00,WUHU216HW,2013-02-14 12:28:00,
2013-02-14 07:34:00,21.7,16.2,29.96,SW,225,0.0,0.0,79,0.00,,,0.00,WUHU216HW,2013-02-14 12:34:00,
2013-02-14 07:39:00,21.9,16.3,29.96,SW,225,0.0,0.0,79,0.00,,,0.00,WUHU216HW,2013-02-14 12:39:00,
2013-02-14 07:43:00,22.1,16.5,29.96,SW,225,0.0,0.0,79,0.00,,,0.00,WUHU216HW,2013-02-14 12:43:00,
2013-02-14 07:48:00,22.2,16.5,29.97,SW,225,0.0,0.0,79,0.00,,,0.00,WUHU216HW,2013-02-14 12:48:00,
2013-02-14 07:54:00,22.4,16.9,29.97,SW,225,0.0,0.0,79,0.00,,,0.00,WUHU216HW,2013-02-14 12:54:00,
2013-02-14 07:59:00,22.6,17.1,29.96,SW,225,0.0,0.0,79,0.00,,,0.00,WUHU216HW,2013-02-14 12:59:00,
2013-02-14 08:04:00,22.8,16.9,29.96,SW,225,0.0,0.0,78,0.00,,,0.00,WUHU216HW,2013-02-14 13:04:00,
2013-02-14 08:09:00,22.8,17.2,29.97,SW,225,0.0,0.0,79,0.00,,,0.00,WUHU216HW,2013-02-14 13:09:00,
2013-02-14 08:14:00,23.1,17.6,29.97,SW,225,0.0,0.0,79,0.00,,,0.00,WUHU216HW,2013-02-14 13:14:00,
2013-02-14 08:19:00,23.5,17.9,29.97,SW,225,0.0,0.0,79,0.00,,,0.00,WUHU216HW,2013-02-14 13:19:00,
2013-02-14 08:24:00,23.7,18.1,29.97,SW,225,0.0,0.0,79,0.00,,,0.00,WUHU216HW,2013-02-14 13:24:00,
2013-02-14 08:29:00,24.0,18.5,29.97,SW,225,0.0,0.0,79,0.00,,,0.00,WUHU216HW,2013-02-14 13:29:00,
2013-02-14 08:34:00,24.4,18.8,29.98,SW,225,0.0,0.0,79,0.00,,,0.00,WUHU216HW,2013-02-14 13:34:00,
2013-02-14 08:39:00,24.6,19.0,29.98,SW,225,0.0,0.0,79,0.00,,,0.00,WUHU216HW,2013-02-14 13:39:00,
2013-02-14 08:45:00,24.9,19.2,29.98,SW,225,0.0,0.0,78,0.00,,,0.00,WUHU216HW,2013-02-14 13:45:00,
2013-02-14 08:50:00,25.5,19.5,29.98,SW,225,0.0,0.0,78,0.00,,,0.00,WUHU216HW,2013-02-14 13:50:00,
2013-02-14 08:55:00,25.8,19.9,29.99,SW,225,0.0,0.0,78,0.00,,,0.00,WUHU216HW,2013-02-14 13:55:00,
2013-02-14 09:00:00,26.2,20.2,29.99,NNW,338,3.0,5.0,78,0.00,,,0.00,WUHU216HW,2013-02-14 14:00:00,
2013-02-14 09:05:00,26.7,20.7,29.99,NNW,338,0.0,5.0,78,0.00,,,0.00,WUHU216HW,2013-02-14 14:05:00,
2013-02-14 09:10:00,27.1,21.1,29.99,West,270,0.0,2.0,78,0.00,,,0.00,WUHU216HW,2013-02-14 14:10:00,
2013-02-14 09:15:00,27.6,21.3,29.99,WSW,248,3.0,3.0,77,0.00,,,0.00,WUHU216HW,2013-02-14 14:15:00,
2013-02-14 09:20:00,28.5,22.2,29.99,West,270,0.0,3.0,77,0.00,,,0.00,WUHU216HW,2013-02-14 14:20:00,
2013-02-14 09:25:00,29.1,22.7,29.99,NNW,338,4.0,4.0,77,0.00,,,0.00,WUHU216HW,2013-02-14 14:25:00,
2013-02-14 09:30:00,30.2,23.5,29.99,ESE,113,5.0,5.0,76,0.00,,,0.00,WUHU216HW,2013-02-14 14:30:00,
2013-02-14 09:35:00,31.2,23.9,29.99,NE,45,3.0,5.0,75,0.00,,,0.00,WUHU216HW,2013-02-14 14:35:00,
2013-02-14 09:40:00,31.8,24.1,29.99,NNE,23,6.0,6.0,73,0.00,,,0.00,WUHU216HW,2013-02-14 14:40:00,
2013-02-14 09:45:00,32.1,24.1,29.99,NE,45,1.0,6.0,72,0.00,,,0.00,WUHU216HW,2013-02-14 14:45:00,
2013-02-14 09:50:00,32.3,24.1,30.00,NE,45,0.0,3.0,71,0.00,,,0.00,WUHU216HW,2013-02-14 14:50:00,
2013-02-14 09:55:00,32.5,23.8,30.00,NNE,23,3.0,6.0,70,0.00,,,0.00,WUHU216HW,2013-02-14 14:55:00,
2013-02-14 10:00:00,32.7,23.6,30.00,NNW,338,0.0,6.0,69,0.00,,,0.00,WUHU216HW,2013-02-14 15:00:00,
2013-02-14 10:05:00,32.9,23.4,30.00,NNW,338,5.0,6.0,68,0.00,,,0.00,WUHU216HW,2013-02-14 15:05:00,
2013-02-14 10:10:00,32.9,23.4,30.00,NNW,338,2.0,5.0,68,0.00,,,0.00,WUHU216HW,2013-02-14 15:10:00,
2013-02-14 10:15:00,33.0,23.2,30.00,NNE,23,0.0,4.0,67,0.00,,,0.00,WUHU216HW,2013-02-14 15:15:00,
2013-02-14 10:20:00,33.4,23.5,30.00,NE,45,0.0,4.0,67,0.00,,,0.00,WUHU216HW,2013-02-14 15:20:00,
2013-02-14 10:25:00,33.8,23.5,30.00,NNE,23,2.0,7.0,66,0.00,,,0.00,WUHU216HW,2013-02-14 15:25:00,
2013-02-14 10:30:00,34.1,23.5,30.01,NE,45,2.0,7.0,65,0.00,,,0.00,WUHU216HW,2013-02-14 15:30:00,
2013-02-14 10:35:00,33.9,22.6,30.01,WNW,293,0.0,4.0,63,0.00,,,0.00,WUHU216HW,2013-02-14 15:35:00,
2013-02-14 10:40:00,33.6,22.2,30.01,WSW,238,4.0,6.0,63,0.00,,,0.00,WUHU216HW,2013-02-14 15:40:00,
2013-02-14 10:46:00,33.6,22.2,30.01,NE,45,4.0,4.0,63,0.00,,,0.00,WUHU216HW,2013-02-14 15:46:00,
2013-02-14 10:54:00,33.6,21.9,30.01,NNW,338,1.0,4.0,62,0.00,,,0.00,WUHU216HW,2013-02-14 15:54:00,
2013-02-14 11:00:00,33.8,22.1,30.02,North,0,0.0,3.0,62,0.00,,,0.00,WUHU216HW,2013-02-14 16:00:00,
2013-02-14 11:05:00,34.3,23.0,30.01,NW,315,0.0,3.0,63,0.00,,,0.00,WUHU216HW,2013-02-14 16:05:00,
2013-02-14 11:10:00,35.2,23.5,30.01,North,0,0.0,0.0,62,0.00,,,0.00,WUHU216HW,2013-02-14 16:10:00,
2013-02-14 11:15:00,35.2,23.1,30.01,SSW,203,0.0,1.0,61,0.00,,,0.00,WUHU216HW,2013-02-14 16:15:00,
2013-02-14 11:20:00,35.4,23.3,30.01,NNE,23,3.0,3.0,61,0.00,,,0.00,WUHU216HW,2013-02-14 16:20:00,
2013-02-14 11:25:00,35.6,23.1,30.01,NE,45,1.0,3.0,60,0.00,,,0.00,WUHU216HW,2013-02-14 16:25:00,
2013-02-14 11:30:00,35.9,23.5,30.01,NNW,333,3.0,5.0,59,0.00,,,0.00,WUHU216HW,2013-02-14 16:30:00,
2013-02-14 11:35:00,36.6,23.7,30.01,SSE,158,0.0,5.0,59,0.00,,,0.00,WUHU216HW,2013-02-14 16:35:00,
2013-02-14 11:40:00,38.3,25.1,30.01,WNW,293,6.0,6.0,59,0.00,,,0.00,WUHU216HW,2013-02-14 16:40:00,
2013-02-14 11:45:00,38.6,24.2,30.01,West,269,4.0,7.0,56,0.00,,,0.00,WUHU216HW,2013-02-14 16:45:00,
2013-02-14 11:50:00,38.6,23.6,30.01,SW,225,5.0,7.0,55,0.00,,,0.00,WUHU216HW,2013-02-14 16:50:00,
2013-02-14 11:55:00,38.4,23.1,30.01,WSW,248,1.0,6.0,54,0.00,,,0.00,WUHU216HW,2013-02-14 16:55:00,
2013-02-14 12:00:00,38.4,23.1,30.01,NW,317,5.0,7.0,54,0.00,,,0.00,WUHU216HW,2013-02-14 17:00:00,
2013-02-14 12:05:00,38.4,23.1,30.01,WSW,248,7.0,7.0,54,0.00,,,0.00,WUHU216HW,2013-02-14 17:05:00,
2013-02-14 12:10:00,38.4,22.7,30.00,NNE,23,5.0,8.0,53,0.00,,,0.00,WUHU216HW,2013-02-14 17:10:00,
2013-02-14 12:17:00,38.4,22.7,30.00,North,7,2.0,8.0,53,0.00,,,0.00,WUHU216HW,2013-02-14 17:17:00,
2013-02-14 12:22:00,38.4,22.7,29.99,South,180,5.0,5.0,53,0.00,,,0.00,WUHU216HW,2013-02-14 17:22:00,
2013-02-14 12:27:00,38.8,23.0,29.99,East,90,3.0,7.0,53,0.00,,,0.00,WUHU216HW,2013-02-14 17:27:00,
2013-02-14 12:32:00,38.8,23.0,29.99,SSW,203,6.0,7.0,53,0.00,,,0.00,WUHU216HW,2013-02-14 17:32:00,
2013-02-14 12:37:00,38.8,23.0,29.99,South,180,4.0,6.0,53,0.00,,,0.00,WUHU216HW,2013-02-14 17:37:00,
2013-02-14 12:42:00,39.3,23.9,29.99,NNE,23,4.0,4.0,54,0.00,,,0.00,WUHU216HW,2013-02-14 17:42:00,
2013-02-14 12:47:00,39.3,23.1,29.99,ENE,68,3.0,10.0,52,0.00,,,0.00,WUHU216HW,2013-02-14 17:47:00,
2013-02-14 12:52:00,39.3,23.5,29.99,WSW,248,4.0,10.0,53,0.00,,,0.00,WUHU216HW,2013-02-14 17:52:00,
2013-02-14 12:57:00,39.3,23.1,29.99,WSW,248,4.0,8.0,52,0.00,,,0.00,WUHU216HW,2013-02-14 17:57:00,
2013-02-14 13:02:00,39.2,22.8,29.99,WSW,248,2.0,8.0,52,0.00,,,0.00,WUHU216HW,2013-02-14 18:02:00,
2013-02-14 13:07:00,39.0,22.8,29.99,WSW,248,3.0,7.0,52,0.00,,,0.00,WUHU216HW,2013-02-14 18:07:00,
2013-02-14 13:12:00,39.0,22.8,29.99,WSW,248,6.0,6.0,52,0.00,,,0.00,WUHU216HW,2013-02-14 18:12:00,
2013-02-14 13:17:00,39.0,22.8,29.99,WSW,248,3.0,6.0,52,0.00,,,0.00,WUHU216HW,2013-02-14 18:17:00,
2013-02-14 13:22:00,39.0,23.2,29.99,WSW,248,0.0,4.0,53,0.00,,,0.00,WUHU216HW,2013-02-14 18:22:00,
2013-02-14 13:27:00,39.3,23.1,29.99,SW,225,5.0,5.0,52,0.00,,,0.00,WUHU216HW,2013-02-14 18:27:00,
2013-02-14 13:32:00,39.3,23.1,29.99,WSW,248,0.0,5.0,52,0.00,,,0.00,WUHU216HW,2013-02-14 18:32:00,
2013-02-14 13:37:00,39.3,23.1,29.99,WSW,248,7.0,7.0,52,0.00,,,0.00,WUHU216HW,2013-02-14 18:37:00,
2013-02-14 13:42:00,39.0,22.8,29.99,WSW,248,3.0,7.0,52,0.00,,,0.00,WUHU216HW,2013-02-14 18:42:00,
2013-02-14 13:47:00,39.0,22.8,29.99,WSW,248,0.0,8.0,52,0.00,,,0.00,WUHU216HW,2013-02-14 18:47:00,
2013-02-14 13:52:00,39.0,22.8,29.99,WSW,248,3.0,8.0,52,0.00,,,0.00,WUHU216HW,2013-02-14 18:52:00,
2013-02-14 13:57:00,39.0,22.8,29.99,WSW,248,4.0,4.0,52,0.00,,,0.00,WUHU216HW,2013-02-14 18:57:00,
2013-02-14 14:02:00,39.0,22.8,29.99,WSW,248,0.0,4.0,52,0.00,,,0.00,WUHU216HW,2013-02-14 19:02:00,
2013-02-14 14:07:00,38.8,22.6,29.99,WSW,248,0.0,0.0,52,0.00,,,0.00,WUHU216HW,2013-02-14 19:07:00,
2013-02-14 14:14:00,38.8,22.6,29.99,SW,225,3.0,3.0,52,0.00,,,0.00,WUHU216HW,2013-02-14 19:14:00,
2013-02-14 14:19:00,38.6,22.4,29.99,WSW,248,0.0,4.0,52,0.00,,,0.00,WUHU216HW,2013-02-14 19:19:00,
2013-02-14 14:24:00,38.4,22.3,29.99,WSW,248,3.0,5.0,52,0.00,,,0.00,WUHU216HW,2013-02-14 19:24:00,
2013-02-14 14:29:00,38.4,22.7,29.99,WSW,248,0.0,5.0,53,0.00,,,0.00,WUHU216HW,2013-02-14 19:29:00,
2013-02-14 14:34:00,38.4,22.7,29.99,WSW,248,0.0,1.0,53,0.00,,,0.00,WUHU216HW,2013-02-14 19:34:00,
2013-02-14 14:39:00,38.4,22.7,29.99,WSW,248,0.0,3.0,53,0.00,,,0.00,WUHU216HW,2013-02-14 19:39:00,
2013-02-14 14:44:00,38.4,22.7,29.99,WSW,248,3.0,3.0,53,0.00,,,0.00,WUHU216HW,2013-02-14 19:44:00,
2013-02-14 14:49:00,38.3,22.5,30.00,WSW,248,0.0,3.0,53,0.00,,,0.00,WUHU216HW,2013-02-14 19:49:00,
2013-02-14 14:54:00,37.9,22.2,30.00,WSW,248,0.0,0.0,53,0.00,,,0.00,WUHU216HW,2013-02-14 19:54:00,
2013-02-14 14:59:00,37.9,22.2,30.00,WSW,248,0.0,0.0,53,0.00,,,0.00,WUHU216HW,2013-02-14 19:59:00,
2013-02-14 15:04:00,37.7,22.1,30.00,WSW,248,0.0,4.0,53,0.00,,,0.00,WUHU216HW,2013-02-14 20:04:00,
2013-02-14 15:09:00,37.5,21.9,30.00,WSW,248,0.0,4.0,53,0.00,,,0.00,WUHU216HW,2013-02-14 20:09:00,
2013-02-14 15:14:00,37.2,22.0,30.00,ENE,68,0.0,0.0,54,0.00,,,0.00,WUHU216HW,2013-02-14 20:14:00,
2013-02-14 15:19:00,37.0,21.8,30.00,NE,45,0.0,0.0,54,0.00,,,0.00,WUHU216HW,2013-02-14 20:19:00,
2013-02-14 15:24:00,36.8,21.9,30.01,WNW,293,4.0,4.0,54,0.00,,,0.00,WUHU216HW,2013-02-14 20:24:00,
2013-02-14 15:29:00,36.3,21.6,30.00,NNW,338,0.0,4.0,55,0.00,,,0.00,WUHU216HW,2013-02-14 20:29:00,
2013-02-14 15:34:00,36.1,21.9,30.01,SSW,203,0.0,3.0,56,0.00,,,0.00,WUHU216HW,2013-02-14 20:34:00,
2013-02-14 15:39:00,35.7,21.6,30.00,NNW,338,0.0,3.0,56,0.00,,,0.00,WUHU216HW,2013-02-14 20:39:00,
2013-02-14 15:45:00,35.4,21.2,30.01,NNW,338,2.0,2.0,56,0.00,,,0.00,WUHU216HW,2013-02-14 20:45:00,
2013-02-14 15:50:00,35.2,21.0,30.01,NW,315,0.0,2.0,56,0.00,,,0.00,WUHU216HW,2013-02-14 20:50:00,
2013-02-14 15:55:00,34.8,21.1,30.01,WNW,293,0.0,0.0,57,0.00,,,0.00,WUHU216HW,2013-02-14 20:55:00,
2013-02-14 16:00:00,34.3,20.6,30.01,WNW,293,0.0,0.0,57,0.00,,,0.00,WUHU216HW,2013-02-14 21:00:00,
2013-02-14 16:05:00,34.1,20.8,30.01,WNW,293,0.0,0.0,58,0.00,,,0.00,WUHU216HW,2013-02-14 21:05:00,
2013-02-14 16:10:00,33.6,20.7,30.01,WNW,293,0.0,0.0,59,0.00,,,0.00,WUHU216HW,2013-02-14 21:10:00,
2013-02-14 16:15:00,33.4,20.6,30.02,WNW,293,0.0,0.0,59,0.00,,,0.00,WUHU216HW,2013-02-14 21:15:00,
2013-02-14 16:20:00,32.9,20.5,30.01,WNW,293,0.0,0.0,60,0.00,,,0.00,WUHU216HW,2013-02-14 21:20:00,
2013-02-14 16:25:00,32.5,20.6,30.01,WNW,293,0.0,0.0,61,0.00,,,0.00,WUHU216HW,2013-02-14 21:25:00,
2013-02-14 16:32:00,32.1,20.6,30.02,WNW,293,0.0,0.0,62,0.00,,,0.00,WUHU216HW,2013-02-14 21:32:00,
2013-02-14 16:37:00,31.8,20.3,30.02,WNW,293,0.0,0.0,62,0.00,,,0.00,WUHU216HW,2013-02-14 21:37:00,
2013-02-14 16:42:00,31.8,20.6,30.02,WNW,293,0.0,0.0,63,0.00,,,0.00,WUHU216HW,2013-02-14 21:42:00,
2013-02-14 16:47:00,31.6,20.4,30.02,WNW,293,0.0,0.0,63,0.00,,,0.00,WUHU216HW,2013-02-14 21:47:00,
2013-02-14 16:52:00,31.6,20.8,30.02,WNW,293,0.0,0.0,64,0.00,,,0.00,WUHU216HW,2013-02-14 21:52:00,
2013-02-14 16:57:00,31.2,20.4,30.02,WNW,293,0.0,0.0,64,0.00,,,0.00,WUHU216HW,2013-02-14 21:57:00,
2013-02-14 17:02:00,30.9,20.1,30.02,WNW,293,0.0,0.0,64,0.00,,,0.00,WUHU216HW,2013-02-14 22:02:00,
2013-02-14 17:08:00,30.7,19.9,30.02,WNW,293,0.0,0.0,64,0.00,,,0.00,WUHU216HW,2013-02-14 22:08:00,
2013-02-14 17:13:00,30.5,19.7,30.02,WNW,293,0.0,0.0,64,0.00,,,0.00,WUHU216HW,2013-02-14 22:13:00,
2013-02-14 17:19:00,30.0,19.5,30.02,WNW,293,0.0,0.0,65,0.00,,,0.00,WUHU216HW,2013-02-14 22:19:00,
2013-02-14 17:25:00,29.8,19.4,30.03,WNW,293,0.0,0.0,65,0.00,,,0.00,WUHU216HW,2013-02-14 22:25:00,
2013-02-14 17:30:00,29.4,19.1,30.03,WNW,293,0.0,0.0,65,0.00,,,0.00,WUHU216HW,2013-02-14 22:30:00,
2013-02-14 17:35:00,29.1,19.1,30.03,WNW,293,0.0,0.0,66,0.00,,,0.00,WUHU216HW,2013-02-14 22:35:00,
2013-02-14 17:40:00,28.9,18.7,30.03,WNW,293,0.0,0.0,65,0.00,,,0.00,WUHU216HW,2013-02-14 22:40:00,
2013-02-14 17:45:00,28.7,18.8,30.03,WNW,293,0.0,0.0,66,0.00,,,0.00,WUHU216HW,2013-02-14 22:45:00,
2013-02-14 17:50:00,28.5,18.6,30.03,WNW,293,0.0,0.0,66,0.00,,,0.00,WUHU216HW,2013-02-14 22:50:00,
2013-02-14 17:55:00,28.4,18.8,30.04,WNW,293,0.0,0.0,67,0.00,,,0.00,WUHU216HW,2013-02-14 22:55:00,
2013-02-14 18:00:00,28.2,18.6,30.04,WNW,293,0.0,0.0,67,0.00,,,0.00,WUHU216HW,2013-02-14 23:00:00,
2013-02-14 18:05:00,28.0,18.5,30.04,WNW,293,0.0,0.0,67,0.00,,,0.00,WUHU216HW,2013-02-14 23:05:00,
2013-02-14 18:10:00,28.0,18.5,30.05,WNW,293,0.0,0.0,67,0.00,,,0.00,WUHU216HW,2013-02-14 23:10:00,
2013-02-14 18:15:00,27.6,18.1,30.05,WNW,293,0.0,0.0,67,0.00,,,0.00,WUHU216HW,2013-02-14 23:15:00,
2013-02-14 18:20:00,27.5,17.9,30.05,WNW,293,0.0,0.0,67,0.00,,,0.00,WUHU216HW,2013-02-14 23:20:00,
2013-02-14 18:25:00,27.3,17.7,30.05,WNW,293,0.0,0.0,67,0.00,,,0.00,WUHU216HW,2013-02-14 23:25:00,
2013-02-14 18:30:00,27.1,17.9,30.05,WNW,293,0.0,0.0,68,0.00,,,0.00,WUHU216HW,2013-02-14 23:30:00,
2013-02-14 18:36:00,27.1,17.9,30.05,WNW,293,0.0,0.0,68,0.00,,,0.00,WUHU216HW,2013-02-14 23:36:00,
2013-02-14 18:41:00,27.1,17.9,30.05,WNW,293,0.0,0.0,68,0.00,,,0.00,WUHU216HW,2013-02-14 23:41:00,
2013-02-14 18:46:00,26.9,18.1,30.05,WNW,293,0.0,0.0,69,0.00,,,0.00,WUHU216HW,2013-02-14 23:46:00,
2013-02-14 18:51:00,26.6,17.7,30.06,WNW,293,0.0,0.0,69,0.00,,,0.00,WUHU216HW,2013-02-14 23:51:00,
2013-02-14 18:56:00,26.4,17.6,30.05,WNW,293,0.0,0.0,69,0.00,,,0.00,WUHU216HW,2013-02-14 23:56:00,
2013-02-14 19:01:00,26.4,17.6,30.06,WNW,293,0.0,0.0,69,0.00,,,0.00,WUHU216HW,2013-02-15 00:01:00,
2013-02-14 19:06:00,26.4,17.6,30.06,WNW,293,0.0,0.0,69,0.00,,,0.00,WUHU216HW,2013-02-15 00:06:00,
2013-02-14 19:11:00,26.4,17.6,30.06,WNW,293,0.0,0.0,69,0.00,,,0.00,WUHU216HW,2013-02-15 00:11:00,
2013-02-14 19:16:00,26.2,17.4,30.06,WNW,293,0.0,0.0,69,0.00,,,0.00,WUHU216HW,2013-02-15 00:16:00,
2013-02-14 19:21:00,26.0,17.6,30.06,WNW,293,0.0,0.0,70,0.00,,,0.00,WUHU216HW,2013-02-15 00:21:00,
2013-02-14 19:26:00,25.7,17.2,30.06,WNW,293,0.0,0.0,70,0.00,,,0.00,WUHU216HW,2013-02-15 00:26:00,
2013-02-14 19:31:00,25.5,17.0,30.07,WNW,293,0.0,0.0,70,0.00,,,0.00,WUHU216HW,2013-02-15 00:31:00,
2013-02-14 19:36:00,25.5,17.3,30.07,WNW,293,0.0,0.0,71,0.00,,,0.00,WUHU216HW,2013-02-15 00:36:00,
2013-02-14 19:41:00,25.3,17.1,30.07,WNW,293,0.0,0.0,71,0.00,,,0.00,WUHU216HW,2013-02-15 00:41:00,
2013-02-14 19:46:00,25.1,17.0,30.07,WNW,293,0.0,0.0,71,0.00,,,0.00,WUHU216HW,2013-02-15 00:46:00,
2013-02-14 19:51:00,24.9,16.8,30.07,WNW,293,0.0,0.0,71,0.00,,,0.00,WUHU216HW,2013-02-15 00:51:00,
2013-02-14 19:56:00,24.9,16.8,30.07,WNW,293,0.0,0.0,71,0.00,,,0.00,WUHU216HW,2013-02-15 00:56:00,
2013-02-14 20:01:00,24.6,16.4,30.06,WNW,293,0.0,0.0,71,0.00,,,0.00,WUHU216HW,2013-02-15 01:01:00,
2013-02-14 20:06:00,24.6,16.4,30.06,WNW,293,0.0,0.0,71,0.00,,,0.00,WUHU216HW,2013-02-15 01:06:00,
2013-02-14 20:11:00,24.4,16.3,30.06,WNW,293,0.0,0.0,71,0.00,,,0.00,WUHU216HW,2013-02-15 01:11:00,
2013-02-14 20:16:00,24.4,16.3,30.06,WNW,293,0.0,0.0,71,0.00,,,0.00,WUHU216HW,2013-02-15 01:16:00,
2013-02-14 20:21:00,24.2,16.1,30.06,WNW,293,0.0,0.0,71,0.00,,,0.00,WUHU216HW,2013-02-15 01:21:00,
2013-02-14 20:26:00,24.0,15.9,30.05,WNW,293,0.0,0.0,71,0.00,,,0.00,WUHU216HW,2013-02-15 01:26:00,
2013-02-14 20:31:00,24.0,15.9,30.05,WNW,293,0.0,0.0,71,0.00,,,0.00,WUHU216HW,2013-02-15 01:31:00,
2013-02-14 20:36:00,23.9,15.8,30.05,WNW,293,0.0,0.0,71,0.00,,,0.00,WUHU216HW,2013-02-15 01:36:00,
2013-02-14 20:42:00,23.7,15.6,30.05,WNW,293,0.0,0.0,71,0.00,,,0.00,WUHU216HW,2013-02-15 01:42:00,
2013-02-14 20:47:00,23.5,15.5,30.05,WNW,293,0.0,0.0,71,0.00,,,0.00,WUHU216HW,2013-02-15 01:47:00,
2013-02-14 20:53:00,23.3,15.3,30.04,WNW,293,0.0,0.0,71,0.00,,,0.00,WUHU216HW,2013-02-15 01:53:00,
2013-02-14 20:58:00,23.1,15.1,30.05,WNW,293,0.0,0.0,71,0.00,,,0.00,WUHU216HW,2013-02-15 01:58:00,
2013-02-14 21:03:00,23.1,15.1,30.04,WNW,293,0.0,0.0,71,0.00,,,0.00,WUHU216HW,2013-02-15 02:03:00,
2013-02-14 21:08:00,23.1,15.1,30.04,WNW,293,0.0,0.0,71,0.00,,,0.00,WUHU216HW,2013-02-15 02:08:00,
2013-02-14 21:13:00,23.0,15.3,30.04,WNW,293,0.0,0.0,72,0.00,,,0.00,WUHU216HW,2013-02-15 02:13:00,
2013-02-14 21:18:00,23.0,15.1,30.04,WNW,293,0.0,0.0,72,0.00,,,0.00,WUHU216HW,2013-02-15 02:18:00,
2013-02-14 21:23:00,22.8,15.1,30.04,WNW,293,0.0,0.0,72,0.00,,,0.00,WUHU216HW,2013-02-15 02:23:00,
2013-02-14 21:28:00,23.0,15.3,30.04,WNW,293,0.0,0.0,72,0.00,,,0.00,WUHU216HW,2013-02-15 02:28:00,
2013-02-14 21:33:00,23.1,15.8,30.04,WNW,293,0.0,0.0,73,0.00,,,0.00,WUHU216HW,2013-02-15 02:33:00,
2013-02-14 21:38:00,23.1,15.8,30.04,WNW,293,0.0,0.0,73,0.00,,,0.00,WUHU216HW,2013-02-15 02:38:00,
2013-02-14 21:43:00,23.3,15.9,30.04,WNW,293,0.0,0.0,73,0.00,,,0.00,WUHU216HW,2013-02-15 02:43:00,
2013-02-14 21:48:00,23.3,15.9,30.05,WNW,293,0.0,0.0,73,0.00,,,0.00,WUHU216HW,2013-02-15 02:48:00,
2013-02-14 21:53:00,23.3,15.9,30.05,WNW,293,0.0,0.0,73,0.00,,,0.00,WUHU216HW,2013-02-15 02:53:00,
2013-02-14 21:58:00,23.3,15.9,30.06,WNW,293,0.0,0.0,73,0.00,,,0.00,WUHU216HW,2013-02-15 02:58:00,
2013-02-14 22:03:00,23.3,15.9,30.07,WNW,293,0.0,0.0,73,0.00,,,0.00,WUHU216HW,2013-02-15 03:03:00,
2013-02-14 22:08:00,23.3,15.9,30.06,WNW,293,0.0,0.0,73,0.00,,,0.00,WUHU216HW,2013-02-15 03:08:00,
2013-02-14 22:13:00,23.3,15.9,30.06,WNW,293,0.0,0.0,73,0.00,,,0.00,WUHU216HW,2013-02-15 03:13:00,
2013-02-14 22:18:00,23.3,15.9,30.06,WNW,293,0.0,0.0,73,0.00,,,0.00,WUHU216HW,2013-02-15 03:18:00,
2013-02-14 22:23:00,23.3,15.9,30.05,WNW,293,0.0,0.0,73,0.00,,,0.00,WUHU216HW,2013-02-15 03:23:00,
2013-02-14 22:28:00,23.1,16.1,30.05,WNW,293,0.0,0.0,74,0.00,,,0.00,WUHU216HW,2013-02-15 03:28:00,
2013-02-14 22:33:00,23.3,16.2,30.04,WNW,293,0.0,0.0,74,0.00,,,0.00,WUHU216HW,2013-02-15 03:33:00,
2013-02-14 22:38:00,23.5,16.4,30.04,WNW,293,0.0,0.0,74,0.00,,,0.00,WUHU216HW,2013-02-15 03:38:00,
2013-02-14 22:43:00,23.5,16.7,30.04,WNW,293,0.0,0.0,75,0.00,,,0.00,WUHU216HW,2013-02-15 03:43:00,
2013-02-14 22:48:00,23.7,16.9,30.05,WNW,293,0.0,0.0,75,0.00,,,0.00,WUHU216HW,2013-02-15 03:48:00,
2013-02-14 22:53:00,23.7,16.9,30.04,WNW,293,0.0,0.0,75,0.00,,,0.00,WUHU216HW,2013-02-15 03:53:00,
2013-02-14 22:58:00,23.5,16.4,30.04,WNW,293,0.0,0.0,74,0.00,,,0.00,WUHU216HW,2013-02-15 03:58:00,
2013-02-14 23:04:00,23.5,16.7,30.05,WNW,293,0.0,0.0,75,0.00,,,0.00,WUHU216HW,2013-02-15 04:04:00,
2013-02-14 23:09:00,23.5,16.7,30.04,WNW,293,0.0,0.0,75,0.00,,,0.00,WUHU216HW,2013-02-15 04:09:00,
2013-02-14 23:14:00,23.5,16.7,30.05,WNW,293,0.0,0.0,75,0.00,,,0.00,WUHU216HW,2013-02-15 04:14:00,
2013-02-14 23:19:00,23.5,16.7,30.05,WNW,293,0.0,0.0,75,0.00,,,0.00,WUHU216HW,2013-02-15 04:19:00,
2013-02-14 23:24:00,23.5,16.4,30.05,WNW,293,0.0,0.0,74,0.00,,,0.00,WUHU216HW,2013-02-15 04:24:00,
2013-02-14 23:30:00,23.5,16.4,30.05,WNW,293,0.0,0.0,74,0.00,,,0.00,WUHU216HW,2013-02-15 04:30:00,
2013-02-14 23:35:00,23.5,16.4,30.05,WNW,293,0.0,0.0,74,0.00,,,0.00,WUHU216HW,2013-02-15 04:35:00,
2013-02-14 23:40:00,23.3,16.2,30.04,WNW,293,0.0,0.0,74,0.00,,,0.00,WUHU216HW,2013-02-15 04:40:00,
2013-02-14 23:45:00,23.1,16.1,30.04,WNW,293,0.0,0.0,74,0.00,,,0.00,WUHU216HW,2013-02-15 04:45:00,
2013-02-14 23:50:00,23.1,16.1,30.05,WNW,293,0.0,0.0,74,0.00,,,0.00,WUHU216HW,2013-02-15 04:50:00,
2013-02-14 23:55:00,22.8,15.7,30.05,WNW,293,0.0,0.0,74,0.00,,,0.00,WUHU216HW,2013-02-15 04:55:00,